sensor_id;sensor_type;location;lat;lon;timestamp;P1;durP1;ratioP1;P2;durP2;ratioP2
51985;SDS011;38002;53.296;6.600;2022-11-25T00:02:59;8.30;;;1.95;;
51985;SDS011;38002;53.296;6.600;2022-11-25T00:07:59;7.72;;;2.40;;
51985;SDS011;38002;53.296;6.600;2022-11-25T00:12:59;14.57;;;2.70;;
51985;SDS011;38002;53.296;6.600;2022-11-25T00:18:00;11.27;;;2.88;;
51985;SDS011;38002;53.296;6.600;2022-11-25T00:23:00;11.27;;;2.70;;
51985;SDS011;38002;53.296;6.600;2022-11-25T00:28:01;12.85;;;2.38;;
51985;SDS011;38002;53.296;6.600;2022-11-25T00:33:01;15.93;;;2.85;;
51985;SDS011;38002;53.296;6.600;2022-11-25T00:38:02;11.73;;;2.40;;
51985;SDS011;38002;53.296;6.600;2022-11-25T00:43:02;9.20;;;2.55;;
51985;SDS011;38002;53.296;6.600;2022-11-25T00:48:21;14.77;;;2.92;;
51985;SDS011;38002;53.296;6.600;2022-11-25T00:53:21;14.18;;;2.75;;
51985;SDS011;38002;53.296;6.600;2022-11-25T00:58:22;14.73;;;2.50;;
51985;SDS011;38002;53.296;6.600;2022-11-25T01:03:22;16.13;;;2.53;;
51985;SDS011;38002;53.296;6.600;2022-11-25T01:08:23;8.25;;;2.88;;
51985;SDS011;38002;53.296;6.600;2022-11-25T01:13:23;10.98;;;2.47;;
51985;SDS011;38002;53.296;6.600;2022-11-25T01:18:24;9.43;;;2.65;;
51985;SDS011;38002;53.296;6.600;2022-11-25T01:23:24;12.15;;;2.95;;
51985;SDS011;38002;53.296;6.600;2022-11-25T01:28:27;11.85;;;3.30;;
51985;SDS011;38002;53.296;6.600;2022-11-25T01:33:28;9.68;;;2.35;;
51985;SDS011;38002;53.296;6.600;2022-11-25T01:38:31;16.02;;;3.35;;
51985;SDS011;38002;53.296;6.600;2022-11-25T01:43:32;9.37;;;2.73;;
51985;SDS011;38002;53.296;6.600;2022-11-25T01:53:40;11.20;;;2.95;;
51985;SDS011;38002;53.296;6.600;2022-11-25T01:58:40;17.40;;;3.70;;
51985;SDS011;38002;53.296;6.600;2022-11-25T02:08:47;6.47;;;2.40;;
51985;SDS011;38002;53.296;6.600;2022-11-25T02:13:50;10.48;;;2.72;;
51985;SDS011;38002;53.296;6.600;2022-11-25T02:18:52;14.45;;;3.90;;
51985;SDS011;38002;53.296;6.600;2022-11-25T02:29:24;15.57;;;4.32;;
51985;SDS011;38002;53.296;6.600;2022-11-25T02:34:25;7.13;;;3.85;;
51985;SDS011;38002;53.296;6.600;2022-11-25T02:39:25;9.27;;;3.88;;
51985;SDS011;38002;53.296;6.600;2022-11-25T02:44:27;10.73;;;3.38;;
51985;SDS011;38002;53.296;6.600;2022-11-25T02:49:28;19.67;;;4.55;;
51985;SDS011;38002;53.296;6.600;2022-11-25T02:54:28;10.63;;;3.05;;
51985;SDS011;38002;53.296;6.600;2022-11-25T02:59:28;20.70;;;4.45;;
51985;SDS011;38002;53.296;6.600;2022-11-25T03:04:29;13.15;;;3.42;;
51985;SDS011;38002;53.296;6.600;2022-11-25T03:09:29;9.52;;;3.47;;
51985;SDS011;38002;53.296;6.600;2022-11-25T03:14:30;13.10;;;3.65;;
51985;SDS011;38002;53.296;6.600;2022-11-25T03:19:30;18.20;;;3.65;;
51985;SDS011;38002;53.296;6.600;2022-11-25T03:24:31;8.82;;;3.17;;
51985;SDS011;38002;53.296;6.600;2022-11-25T03:29:32;10.27;;;3.13;;
51985;SDS011;38002;53.296;6.600;2022-11-25T03:34:32;12.65;;;3.72;;
51985;SDS011;38002;53.296;6.600;2022-11-25T03:39:32;15.82;;;4.00;;
51985;SDS011;38002;53.296;6.600;2022-11-25T03:44:33;17.23;;;4.32;;
51985;SDS011;38002;53.296;6.600;2022-11-25T03:49:33;14.57;;;4.07;;
51985;SDS011;38002;53.296;6.600;2022-11-25T03:54:34;12.50;;;4.72;;
51985;SDS011;38002;53.296;6.600;2022-11-25T03:59:35;11.05;;;4.10;;
51985;SDS011;38002;53.296;6.600;2022-11-25T04:04:35;12.25;;;4.85;;
51985;SDS011;38002;53.296;6.600;2022-11-25T04:09:36;9.85;;;4.45;;
51985;SDS011;38002;53.296;6.600;2022-11-25T04:14:37;15.35;;;5.25;;
51985;SDS011;38002;53.296;6.600;2022-11-25T04:19:37;11.90;;;4.80;;
51985;SDS011;38002;53.296;6.600;2022-11-25T04:24:37;19.10;;;4.93;;
51985;SDS011;38002;53.296;6.600;2022-11-25T04:29:38;17.67;;;5.32;;
51985;SDS011;38002;53.296;6.600;2022-11-25T04:34:38;17.83;;;5.45;;
51985;SDS011;38002;53.296;6.600;2022-11-25T04:39:39;17.13;;;5.00;;
51985;SDS011;38002;53.296;6.600;2022-11-25T04:44:39;23.45;;;7.78;;
51985;SDS011;38002;53.296;6.600;2022-11-25T04:49:39;18.15;;;5.82;;
51985;SDS011;38002;53.296;6.600;2022-11-25T04:54:40;10.68;;;5.75;;
51985;SDS011;38002;53.296;6.600;2022-11-25T04:59:41;19.67;;;5.93;;
51985;SDS011;38002;53.296;6.600;2022-11-25T05:04:42;20.90;;;6.63;;
51985;SDS011;38002;53.296;6.600;2022-11-25T05:09:46;13.68;;;5.70;;
51985;SDS011;38002;53.296;6.600;2022-11-25T05:14:47;18.30;;;6.68;;
51985;SDS011;38002;53.296;6.600;2022-11-25T05:19:48;13.40;;;6.75;;
51985;SDS011;38002;53.296;6.600;2022-11-25T05:24:49;20.13;;;6.90;;
51985;SDS011;38002;53.296;6.600;2022-11-25T05:29:50;21.10;;;7.40;;
51985;SDS011;38002;53.296;6.600;2022-11-25T05:34:51;18.35;;;8.52;;
51985;SDS011;38002;53.296;6.600;2022-11-25T05:39:51;15.70;;;7.13;;
51985;SDS011;38002;53.296;6.600;2022-11-25T05:44:52;18.55;;;8.23;;
51985;SDS011;38002;53.296;6.600;2022-11-25T05:49:52;12.32;;;6.65;;
51985;SDS011;38002;53.296;6.600;2022-11-25T05:54:53;19.30;;;7.68;;
51985;SDS011;38002;53.296;6.600;2022-11-25T05:59:53;17.02;;;7.47;;
51985;SDS011;38002;53.296;6.600;2022-11-25T06:04:53;22.75;;;6.80;;
51985;SDS011;38002;53.296;6.600;2022-11-25T06:09:54;17.83;;;6.70;;
51985;SDS011;38002;53.296;6.600;2022-11-25T06:14:54;17.13;;;6.80;;
51985;SDS011;38002;53.296;6.600;2022-11-25T06:19:55;16.85;;;8.02;;
51985;SDS011;38002;53.296;6.600;2022-11-25T06:24:55;15.60;;;6.75;;
51985;SDS011;38002;53.296;6.600;2022-11-25T06:29:55;16.92;;;7.28;;
51985;SDS011;38002;53.296;6.600;2022-11-25T06:34:56;21.30;;;7.88;;
51985;SDS011;38002;53.296;6.600;2022-11-25T06:39:56;20.88;;;8.63;;
51985;SDS011;38002;53.296;6.600;2022-11-25T06:44:57;19.58;;;7.90;;
51985;SDS011;38002;53.296;6.600;2022-11-25T06:49:57;18.13;;;7.60;;
51985;SDS011;38002;53.296;6.600;2022-11-25T06:54:58;19.88;;;8.35;;
51985;SDS011;38002;53.296;6.600;2022-11-25T06:59:58;18.52;;;6.85;;
51985;SDS011;38002;53.296;6.600;2022-11-25T07:04:59;19.92;;;6.60;;
51985;SDS011;38002;53.296;6.600;2022-11-25T07:09:59;22.75;;;7.07;;
51985;SDS011;38002;53.296;6.600;2022-11-25T07:14:59;13.50;;;6.60;;
51985;SDS011;38002;53.296;6.600;2022-11-25T07:20:00;17.10;;;6.70;;
51985;SDS011;38002;53.296;6.600;2022-11-25T07:25:00;16.77;;;7.00;;
51985;SDS011;38002;53.296;6.600;2022-11-25T07:30:01;14.90;;;6.40;;
51985;SDS011;38002;53.296;6.600;2022-11-25T07:35:01;13.05;;;6.60;;
51985;SDS011;38002;53.296;6.600;2022-11-25T07:40:02;23.42;;;6.35;;
51985;SDS011;38002;53.296;6.600;2022-11-25T07:45:03;16.05;;;6.55;;
51985;SDS011;38002;53.296;6.600;2022-11-25T07:50:04;18.75;;;7.20;;
51985;SDS011;38002;53.296;6.600;2022-11-25T07:55:05;18.17;;;7.17;;
51985;SDS011;38002;53.296;6.600;2022-11-25T08:00:06;12.63;;;6.40;;
51985;SDS011;38002;53.296;6.600;2022-11-25T08:05:07;10.48;;;5.53;;
51985;SDS011;38002;53.296;6.600;2022-11-25T08:10:08;18.67;;;5.35;;
51985;SDS011;38002;53.296;6.600;2022-11-25T08:15:09;19.60;;;4.90;;
51985;SDS011;38002;53.296;6.600;2022-11-25T08:20:10;20.42;;;5.05;;
51985;SDS011;38002;53.296;6.600;2022-11-25T08:25:10;10.40;;;3.83;;
51985;SDS011;38002;53.296;6.600;2022-11-25T08:30:11;9.40;;;3.47;;
51985;SDS011;38002;53.296;6.600;2022-11-25T08:35:12;8.77;;;3.55;;
51985;SDS011;38002;53.296;6.600;2022-11-25T08:40:13;15.50;;;3.78;;
51985;SDS011;38002;53.296;6.600;2022-11-25T08:45:13;11.90;;;3.65;;
51985;SDS011;38002;53.296;6.600;2022-11-25T08:50:14;10.95;;;3.88;;
51985;SDS011;38002;53.296;6.600;2022-11-25T08:55:14;10.73;;;3.65;;
51985;SDS011;38002;53.296;6.600;2022-11-25T09:00:15;7.68;;;2.88;;
51985;SDS011;38002;53.296;6.600;2022-11-25T09:05:16;6.28;;;2.70;;
51985;SDS011;38002;53.296;6.600;2022-11-25T09:10:16;6.90;;;2.85;;
51985;SDS011;38002;53.296;6.600;2022-11-25T09:15:17;11.50;;;3.30;;
51985;SDS011;38002;53.296;6.600;2022-11-25T09:20:17;8.07;;;3.38;;
51985;SDS011;38002;53.296;6.600;2022-11-25T09:25:18;5.55;;;4.18;;
51985;SDS011;38002;53.296;6.600;2022-11-25T09:30:19;9.07;;;3.45;;
51985;SDS011;38002;53.296;6.600;2022-11-25T09:35:20;9.57;;;3.53;;
51985;SDS011;38002;53.296;6.600;2022-11-25T10:02:15;9.30;;;3.65;;
51985;SDS011;38002;53.296;6.600;2022-11-25T10:07:26;12.63;;;3.30;;
51985;SDS011;38002;53.296;6.600;2022-11-25T10:12:33;9.52;;;3.10;;
51985;SDS011;38002;53.296;6.600;2022-11-25T10:17:44;15.85;;;3.47;;
51985;SDS011;38002;53.296;6.600;2022-11-25T10:23:09;7.18;;;2.92;;
51985;SDS011;38002;53.296;6.600;2022-11-25T10:39:10;8.85;;;3.33;;
51985;SDS011;38002;53.296;6.600;2022-11-25T10:44:33;11.85;;;3.55;;
51985;SDS011;38002;53.296;6.600;2022-11-25T10:55:14;8.35;;;3.42;;
51985;SDS011;38002;53.296;6.600;2022-11-25T11:05:32;10.15;;;4.05;;
51985;SDS011;38002;53.296;6.600;2022-11-25T11:10:32;11.07;;;3.53;;
51985;SDS011;38002;53.296;6.600;2022-11-25T11:20:44;8.98;;;2.95;;
51985;SDS011;38002;53.296;6.600;2022-11-25T11:26:21;10.90;;;2.83;;
51985;SDS011;38002;53.296;6.600;2022-11-25T11:31:31;10.00;;;2.90;;
51985;SDS011;38002;53.296;6.600;2022-11-25T11:42:22;12.88;;;2.83;;
51985;SDS011;38002;53.296;6.600;2022-11-25T12:03:12;12.65;;;2.83;;
51985;SDS011;38002;53.296;6.600;2022-11-25T12:19:04;9.80;;;2.17;;
51985;SDS011;38002;53.296;6.600;2022-11-25T12:24:28;10.93;;;2.72;;
51985;SDS011;38002;53.296;6.600;2022-11-25T12:29:37;9.07;;;2.17;;
51985;SDS011;38002;53.296;6.600;2022-11-25T12:35:02;7.90;;;2.22;;
51985;SDS011;38002;53.296;6.600;2022-11-25T12:40:14;11.60;;;2.08;;
51985;SDS011;38002;53.296;6.600;2022-11-25T12:45:20;18.13;;;2.72;;
51985;SDS011;38002;53.296;6.600;2022-11-25T12:50:23;10.45;;;2.88;;
51985;SDS011;38002;53.296;6.600;2022-11-25T12:55:28;14.38;;;2.30;;
51985;SDS011;38002;53.296;6.600;2022-11-25T13:00:55;11.00;;;2.20;;
51985;SDS011;38002;53.296;6.600;2022-11-25T13:16:40;13.05;;;2.05;;
51985;SDS011;38002;53.296;6.600;2022-11-25T13:21:55;9.27;;;2.30;;
51985;SDS011;38002;53.296;6.600;2022-11-25T13:27:00;9.50;;;1.75;;
51985;SDS011;38002;53.296;6.600;2022-11-25T13:32:01;6.32;;;1.70;;
51985;SDS011;38002;53.296;6.600;2022-11-25T13:42:41;14.98;;;2.30;;
51985;SDS011;38002;53.296;6.600;2022-11-25T13:47:44;10.90;;;1.83;;
51985;SDS011;38002;53.296;6.600;2022-11-25T13:52:57;14.20;;;1.95;;
51985;SDS011;38002;53.296;6.600;2022-11-25T14:29:05;20.42;;;2.25;;
51985;SDS011;38002;53.296;6.600;2022-11-25T14:34:29;10.00;;;1.75;;
51985;SDS011;38002;53.296;6.600;2022-11-25T14:44:52;11.38;;;1.75;;
51985;SDS011;38002;53.296;6.600;2022-11-25T14:50:00;10.20;;;1.35;;
51985;SDS011;38002;53.296;6.600;2022-11-25T14:55:01;9.65;;;2.28;;
51985;SDS011;38002;53.296;6.600;2022-11-25T15:00:04;9.70;;;1.75;;
51985;SDS011;38002;53.296;6.600;2022-11-25T15:05:20;11.38;;;2.13;;
51985;SDS011;38002;53.296;6.600;2022-11-25T15:15:33;12.43;;;2.28;;
51985;SDS011;38002;53.296;6.600;2022-11-25T15:20:33;11.48;;;1.88;;
51985;SDS011;38002;53.296;6.600;2022-11-25T15:25:34;7.32;;;1.38;;
51985;SDS011;38002;53.296;6.600;2022-11-25T15:30:58;13.93;;;1.75;;
51985;SDS011;38002;53.296;6.600;2022-11-25T15:36:00;4.53;;;1.30;;
51985;SDS011;38002;53.296;6.600;2022-11-25T15:41:01;10.00;;;2.53;;
51985;SDS011;38002;53.296;6.600;2022-11-25T15:46:03;7.03;;;1.80;;
51985;SDS011;38002;53.296;6.600;2022-11-25T15:56:24;11.68;;;2.92;;
51985;SDS011;38002;53.296;6.600;2022-11-25T16:01:27;8.95;;;2.60;;
51985;SDS011;38002;53.296;6.600;2022-11-25T16:06:28;15.68;;;1.88;;
51985;SDS011;38002;53.296;6.600;2022-11-25T16:11:29;12.48;;;2.22;;
51985;SDS011;38002;53.296;6.600;2022-11-25T16:16:43;11.20;;;1.75;;
51985;SDS011;38002;53.296;6.600;2022-11-25T16:21:45;9.32;;;1.70;;
51985;SDS011;38002;53.296;6.600;2022-11-25T16:27:00;10.07;;;1.92;;
51985;SDS011;38002;53.296;6.600;2022-11-25T16:32:16;9.95;;;2.38;;
51985;SDS011;38002;53.296;6.600;2022-11-25T16:37:27;6.72;;;1.92;;
51985;SDS011;38002;53.296;6.600;2022-11-25T16:42:28;5.10;;;1.85;;
51985;SDS011;38002;53.296;6.600;2022-11-25T16:47:28;9.23;;;1.60;;
51985;SDS011;38002;53.296;6.600;2022-11-25T16:52:29;12.25;;;2.15;;
51985;SDS011;38002;53.296;6.600;2022-11-25T16:57:29;9.10;;;2.28;;
51985;SDS011;38002;53.296;6.600;2022-11-25T17:02:30;10.35;;;2.65;;
51985;SDS011;38002;53.296;6.600;2022-11-25T17:07:30;13.93;;;3.20;;
51985;SDS011;38002;53.296;6.600;2022-11-25T17:12:32;15.07;;;2.63;;
51985;SDS011;38002;53.296;6.600;2022-11-25T17:17:34;10.68;;;2.83;;
51985;SDS011;38002;53.296;6.600;2022-11-25T17:22:34;14.00;;;2.85;;
51985;SDS011;38002;53.296;6.600;2022-11-25T17:27:35;12.98;;;2.55;;
51985;SDS011;38002;53.296;6.600;2022-11-25T17:32:35;14.65;;;3.00;;
51985;SDS011;38002;53.296;6.600;2022-11-25T17:37:35;16.05;;;3.28;;
51985;SDS011;38002;53.296;6.600;2022-11-25T17:42:36;13.90;;;3.00;;
51985;SDS011;38002;53.296;6.600;2022-11-25T17:47:37;10.67;;;2.93;;
51985;SDS011;38002;53.296;6.600;2022-11-25T17:52:38;6.85;;;2.75;;
51985;SDS011;38002;53.296;6.600;2022-11-25T17:57:39;16.73;;;3.20;;
51985;SDS011;38002;53.296;6.600;2022-11-25T18:02:39;21.17;;;3.28;;
51985;SDS011;38002;53.296;6.600;2022-11-25T18:07:41;17.55;;;3.83;;
51985;SDS011;38002;53.296;6.600;2022-11-25T18:12:46;18.77;;;3.65;;
51985;SDS011;38002;53.296;6.600;2022-11-25T18:17:50;10.48;;;3.17;;
51985;SDS011;38002;53.296;6.600;2022-11-25T18:22:57;11.70;;;3.88;;
51985;SDS011;38002;53.296;6.600;2022-11-25T18:27:59;11.55;;;3.67;;
51985;SDS011;38002;53.296;6.600;2022-11-25T18:33:00;21.23;;;3.40;;
51985;SDS011;38002;53.296;6.600;2022-11-25T18:38:04;15.02;;;4.63;;
51985;SDS011;38002;53.296;6.600;2022-11-25T18:43:06;15.27;;;3.83;;
51985;SDS011;38002;53.296;6.600;2022-11-25T18:48:18;14.32;;;3.40;;
51985;SDS011;38002;53.296;6.600;2022-11-25T18:53:20;13.13;;;3.70;;
51985;SDS011;38002;53.296;6.600;2022-11-25T18:58:22;12.65;;;3.25;;
51985;SDS011;38002;53.296;6.600;2022-11-25T19:03:24;17.85;;;3.50;;
51985;SDS011;38002;53.296;6.600;2022-11-25T19:08:25;15.75;;;3.63;;
51985;SDS011;38002;53.296;6.600;2022-11-25T19:13:27;12.73;;;3.45;;
51985;SDS011;38002;53.296;6.600;2022-11-25T19:18:31;14.52;;;3.92;;
51985;SDS011;38002;53.296;6.600;2022-11-25T19:23:32;14.02;;;4.10;;
51985;SDS011;38002;53.296;6.600;2022-11-25T19:28:34;14.75;;;4.07;;
51985;SDS011;38002;53.296;6.600;2022-11-25T19:33:36;13.48;;;4.15;;
51985;SDS011;38002;53.296;6.600;2022-11-25T19:38:39;22.27;;;3.95;;
51985;SDS011;38002;53.296;6.600;2022-11-25T19:43:39;16.42;;;5.45;;
51985;SDS011;38002;53.296;6.600;2022-11-25T19:48:40;11.15;;;3.75;;
51985;SDS011;38002;53.296;6.600;2022-11-25T19:53:40;25.67;;;4.72;;
51985;SDS011;38002;53.296;6.600;2022-11-25T19:58:40;13.93;;;3.70;;
51985;SDS011;38002;53.296;6.600;2022-11-25T20:03:41;15.88;;;3.88;;
51985;SDS011;38002;53.296;6.600;2022-11-25T20:08:44;10.27;;;3.42;;
51985;SDS011;38002;53.296;6.600;2022-11-25T20:13:46;8.35;;;2.50;;
51985;SDS011;38002;53.296;6.600;2022-11-25T20:18:47;12.32;;;4.07;;
51985;SDS011;38002;53.296;6.600;2022-11-25T20:23:49;13.02;;;2.88;;
51985;SDS011;38002;53.296;6.600;2022-11-25T20:28:50;12.85;;;4.20;;
51985;SDS011;38002;53.296;6.600;2022-11-25T20:33:50;10.80;;;3.60;;
51985;SDS011;38002;53.296;6.600;2022-11-25T20:38:51;12.57;;;3.53;;
51985;SDS011;38002;53.296;6.600;2022-11-25T20:43:53;9.98;;;3.55;;
51985;SDS011;38002;53.296;6.600;2022-11-25T20:48:56;12.35;;;3.83;;
51985;SDS011;38002;53.296;6.600;2022-11-25T20:53:58;10.23;;;2.75;;
51985;SDS011;38002;53.296;6.600;2022-11-25T20:59:00;15.70;;;4.10;;
51985;SDS011;38002;53.296;6.600;2022-11-25T21:04:00;7.30;;;3.30;;
51985;SDS011;38002;53.296;6.600;2022-11-25T21:09:01;14.75;;;4.45;;
51985;SDS011;38002;53.296;6.600;2022-11-25T21:14:01;7.68;;;3.70;;
51985;SDS011;38002;53.296;6.600;2022-11-25T21:19:02;18.17;;;3.83;;
51985;SDS011;38002;53.296;6.600;2022-11-25T21:24:44;11.02;;;3.75;;
51985;SDS011;38002;53.296;6.600;2022-11-25T21:29:30;14.02;;;3.97;;
51985;SDS011;38002;53.296;6.600;2022-11-25T21:34:31;12.90;;;4.35;;
51985;SDS011;38002;53.296;6.600;2022-11-25T21:39:31;22.42;;;4.75;;
51985;SDS011;38002;53.296;6.600;2022-11-25T21:44:37;17.37;;;3.40;;
51985;SDS011;38002;53.296;6.600;2022-11-25T21:49:39;13.85;;;4.68;;
51985;SDS011;38002;53.296;6.600;2022-11-25T21:54:41;13.75;;;4.32;;
51985;SDS011;38002;53.296;6.600;2022-11-25T21:59:43;16.40;;;4.60;;
51985;SDS011;38002;53.296;6.600;2022-11-25T22:04:44;14.65;;;3.53;;
51985;SDS011;38002;53.296;6.600;2022-11-25T22:09:45;14.38;;;3.92;;
51985;SDS011;38002;53.296;6.600;2022-11-25T22:14:46;16.63;;;4.05;;
51985;SDS011;38002;53.296;6.600;2022-11-25T22:19:46;12.82;;;4.53;;
51985;SDS011;38002;53.296;6.600;2022-11-25T22:24:47;9.82;;;3.03;;
51985;SDS011;38002;53.296;6.600;2022-11-25T22:29:47;9.13;;;3.08;;
51985;SDS011;38002;53.296;6.600;2022-11-25T22:34:48;11.75;;;3.55;;
51985;SDS011;38002;53.296;6.600;2022-11-25T22:39:49;8.13;;;3.00;;
51985;SDS011;38002;53.296;6.600;2022-11-25T22:44:49;10.43;;;3.50;;
51985;SDS011;38002;53.296;6.600;2022-11-25T22:49:51;18.60;;;3.80;;
51985;SDS011;38002;53.296;6.600;2022-11-25T22:54:52;7.93;;;3.22;;
51985;SDS011;38002;53.296;6.600;2022-11-25T22:59:53;15.32;;;3.50;;
51985;SDS011;38002;53.296;6.600;2022-11-25T23:04:54;7.32;;;3.10;;
51985;SDS011;38002;53.296;6.600;2022-11-25T23:09:54;11.37;;;3.77;;
51985;SDS011;38002;53.296;6.600;2022-11-25T23:14:55;9.73;;;3.60;;
51985;SDS011;38002;53.296;6.600;2022-11-25T23:19:56;10.57;;;3.45;;
51985;SDS011;38002;53.296;6.600;2022-11-25T23:24:56;9.52;;;3.08;;
51985;SDS011;38002;53.296;6.600;2022-11-25T23:29:57;8.05;;;3.35;;
51985;SDS011;38002;53.296;6.600;2022-11-25T23:34:57;14.65;;;4.47;;
51985;SDS011;38002;53.296;6.600;2022-11-25T23:39:58;12.48;;;3.72;;
51985;SDS011;38002;53.296;6.600;2022-11-25T23:44:58;14.15;;;4.15;;
51985;SDS011;38002;53.296;6.600;2022-11-25T23:49:59;11.52;;;3.20;;
51985;SDS011;38002;53.296;6.600;2022-11-25T23:55:00;10.27;;;3.28;;
